KMSP/MSP METAR and TAF weather

Enter ICAO airport designator
Station Type Date Time Source
KMSP METAR 2022/01/26 07:53 UTC NOAA

KMSP 260753Z 22004KT 10SM CLR M25/M28 A3043 RMK AO2 SLP333 T12501283


Station Type Date Time Source
KMSP Decoded METAR 2022/01/26 07:53 UTC NOAA

MINNEAPOLIS-ST PAUL INTERNATIONAL , MN, United States (KMSP) 44-52N 93-13W 265M
Jan 26, 2022 - 02:53 AM EST / 2022.01.26 0753 UTC
Wind: from the SW (220 degrees) at 5 MPH (4 KT):0
Visibility: 10 mile(s):0
Sky conditions: clear
Temperature: -13.0 F (-25.0 C)
Windchill: -25 F (-32 C):2
Dew Point: -18.9 F (-28.3 C)
Relative Humidity: 73%
Pressure (altimeter): 30.43 in. Hg (1030 hPa)
ob: KMSP 260753Z 22004KT 10SM CLR M25/M28 A3043 RMK AO2 SLP333 T12501283
cycle: 8

Station Type Date Time Source
KMSP TAF 2022/01/26 06:22 UTC NOAA

TAF KMSP 260520Z 2606/2712 24004KT P6SM SKC
FM261400 19009KT P6SM FEW250 WS020/22035KT
FM261700 19012G23KT P6SM SCT200 WS020/22040KT
FM262000 20017G31KT P6SM BKN180
FM270000 21013G28KT P6SM BKN150
FM270300 22011G20KT P6SM BKN100
FM270800 24008KT P6SM BKN050

Example: see airport list